createdAt,value
2018-01-21T00:00:54.012Z,14.53
2018-01-21T00:03:23.330Z,15.43
2018-01-21T00:05:51.880Z,14.37
2018-01-21T00:08:20.429Z,12.90
2018-01-21T00:10:48.978Z,13.30
2018-01-21T00:13:17.474Z,13.80
2018-01-21T00:15:46.051Z,12.70
2018-01-21T00:18:14.553Z,12.67
2018-01-21T00:20:43.046Z,12.50
2018-01-21T00:23:11.661Z,13.13
2018-01-21T00:25:41.011Z,14.50
2018-01-21T00:28:09.514Z,15.13
2018-01-21T00:30:38.066Z,14.50
2018-01-21T00:33:06.639Z,14.00
2018-01-21T00:35:36.108Z,13.67
2018-01-21T00:38:04.679Z,14.50
2018-01-21T00:40:33.244Z,14.17
2018-01-21T00:43:01.764Z,14.20
2018-01-21T00:45:31.083Z,15.67
2018-01-21T00:47:59.645Z,14.60
2018-01-21T00:50:28.910Z,14.53
2018-01-21T00:52:57.463Z,15.37
2018-01-21T00:55:26.135Z,15.33
2018-01-21T00:57:54.667Z,17.00
2018-01-21T01:00:23.239Z,17.10
2018-01-21T01:02:51.789Z,18.67
2018-01-21T01:05:20.361Z,19.10
2018-01-21T01:07:48.955Z,18.77
2018-01-21T01:10:17.583Z,17.63
2018-01-21T01:12:46.115Z,19.97
2018-01-21T01:15:14.756Z,20.00
2018-01-21T01:17:43.335Z,18.47
2018-01-21T01:20:11.907Z,22.43
2018-01-21T01:22:40.454Z,20.60
2018-01-21T01:25:09.013Z,20.77
2018-01-21T01:27:37.549Z,22.00
2018-01-21T01:30:06.119Z,17.27
2018-01-21T01:32:34.646Z,18.43
2018-01-21T01:35:03.192Z,20.17
2018-01-21T01:37:31.826Z,15.97
2018-01-21T01:40:01.201Z,17.10
2018-01-21T01:42:29.762Z,20.20
2018-01-21T01:44:58.314Z,17.13
2018-01-21T01:47:26.866Z,18.70
2018-01-21T01:49:56.210Z,22.77
2018-01-21T01:52:24.740Z,20.60
2018-01-21T01:54:53.298Z,16.60
2018-01-21T01:57:21.878Z,14.90
2018-01-21T01:59:50.501Z,14.77
2018-01-21T02:02:19.824Z,13.70
2018-01-21T02:04:48.348Z,14.83
2018-01-21T02:07:16.913Z,14.07
2018-01-21T02:09:45.463Z,14.00
2018-01-21T02:12:14.749Z,15.23
2018-01-21T02:14:43.306Z,15.43
2018-01-21T02:17:11.869Z,15.50
2018-01-21T02:19:40.462Z,16.20
2018-01-21T02:22:09.019Z,15.30
2018-01-21T02:24:37.683Z,15.97
2018-01-21T02:27:06.957Z,17.53
2018-01-21T02:29:35.538Z,17.30
2018-01-21T02:32:04.127Z,18.73
2018-01-21T02:34:32.693Z,19.03
2018-01-21T02:37:01.288Z,20.10
2018-01-21T02:39:29.906Z,19.67
2018-01-21T02:41:58.486Z,19.77
2018-01-21T02:44:27.035Z,19.97
2018-01-21T02:46:55.620Z,20.00
2018-01-21T02:49:24.175Z,18.47
2018-01-21T02:51:52.738Z,18.03
2018-01-21T02:54:21.313Z,18.70
2018-01-21T02:56:49.862Z,18.13
2018-01-21T02:59:18.450Z,17.90
2018-01-21T03:01:47.808Z,19.47
2018-01-21T03:04:16.339Z,19.90
2018-01-21T03:06:45.639Z,19.07
2018-01-21T03:09:14.986Z,20.27
2018-01-21T03:11:43.520Z,19.83
2018-01-21T03:14:12.828Z,20.63
2018-01-21T03:16:41.365Z,18.67
2018-01-21T03:19:09.877Z,20.10
2018-01-21T03:21:38.450Z,21.23
2018-01-21T03:24:07.013Z,19.57
2018-01-21T03:26:35.550Z,19.47
2018-01-21T03:29:04.124Z,20.03
2018-01-21T03:31:32.704Z,19.33
2018-01-21T03:34:01.280Z,18.33
2018-01-21T03:36:30.674Z,17.70
2018-01-21T03:38:59.258Z,18.87
2018-01-21T03:41:27.783Z,17.27
2018-01-21T03:43:56.362Z,17.33
2018-01-21T03:46:24.902Z,16.90
2018-01-21T03:48:53.524Z,16.40
2018-01-21T03:51:22.060Z,16.00
2018-01-21T03:53:50.701Z,14.73
2018-01-21T03:56:19.211Z,14.83
2018-01-21T03:58:47.746Z,14.20
2018-01-21T04:01:16.283Z,13.57
2018-01-21T04:03:44.774Z,13.47
2018-01-21T04:06:13.460Z,13.67
2018-01-21T04:08:41.994Z,13.43
2018-01-21T04:11:10.548Z,13.10
2018-01-21T04:13:39.109Z,12.83
2018-01-21T04:16:07.667Z,13.07
2018-01-21T04:18:36.215Z,12.80
2018-01-21T04:21:04.720Z,13.60
2018-01-21T04:23:33.241Z,13.37
2018-01-21T04:26:01.723Z,15.57
2018-01-21T04:28:30.264Z,14.30
2018-01-21T04:30:58.794Z,12.60
2018-01-21T04:33:27.305Z,12.87
2018-01-21T04:35:55.826Z,12.93
2018-01-21T04:38:24.378Z,12.77
2018-01-21T04:40:52.900Z,12.00
2018-01-21T04:43:21.555Z,13.73
2018-01-21T04:45:50.109Z,12.70
2018-01-21T04:48:18.626Z,11.70
2018-01-21T04:50:47.250Z,11.27
2018-01-21T04:53:15.819Z,10.57
2018-01-21T04:55:44.366Z,12.17
2018-01-21T04:58:12.897Z,11.93
2018-01-21T05:00:41.458Z,11.67
2018-01-21T05:03:09.978Z,9.60
2018-01-21T05:05:39.311Z,9.17
2018-01-21T05:08:07.866Z,8.87
2018-01-21T05:10:37.183Z,8.40
2018-01-21T05:13:05.735Z,9.10
2018-01-21T05:15:34.267Z,8.23
2018-01-21T05:18:02.778Z,8.93
2018-01-21T05:20:31.379Z,9.40
2018-01-21T05:23:00.690Z,8.97
2018-01-21T05:25:29.929Z,9.13
2018-01-21T05:27:58.486Z,9.90
2018-01-21T05:30:27.063Z,10.50
2018-01-21T05:32:56.319Z,8.40
2018-01-21T05:35:24.863Z,9.27
2018-01-21T05:37:53.394Z,8.03
2018-01-21T05:40:21.945Z,8.33
2018-01-21T05:42:50.506Z,8.73
2018-01-21T05:45:19.081Z,8.53
2018-01-21T05:47:47.615Z,8.43
2018-01-21T05:50:16.166Z,7.03
2018-01-21T05:52:44.708Z,8.23
2018-01-21T05:55:13.821Z,8.23
2018-01-21T05:57:42.365Z,8.07
2018-01-21T06:00:10.926Z,7.63
2018-01-21T06:02:39.444Z,8.07
2018-01-21T06:05:07.978Z,7.60
2018-01-21T06:07:36.539Z,8.33
2018-01-21T06:10:05.066Z,7.83
2018-01-21T06:12:33.604Z,7.47
2018-01-21T06:15:02.149Z,8.00
2018-01-21T06:17:30.680Z,7.07
2018-01-21T06:19:59.062Z,7.33
2018-01-21T06:22:27.601Z,7.50
2018-01-21T06:24:56.126Z,7.30
2018-01-21T06:27:24.654Z,7.13
2018-01-21T06:29:53.224Z,7.70
2018-01-21T06:32:21.800Z,6.57
2018-01-21T06:34:50.506Z,6.27
2018-01-21T06:37:19.029Z,6.90
2018-01-21T06:39:47.637Z,6.67
2018-01-21T06:42:16.197Z,7.00
2018-01-21T06:44:44.825Z,6.93
2018-01-21T06:47:13.320Z,7.23
2018-01-21T06:49:41.843Z,7.50
2018-01-21T06:52:10.432Z,7.10
2018-01-21T06:54:38.922Z,7.10
2018-01-21T06:57:07.471Z,8.07
2018-01-21T06:59:36.810Z,7.00
2018-01-21T07:02:06.251Z,7.33
2018-01-21T07:04:34.776Z,7.93
2018-01-21T07:07:03.332Z,7.70
2018-01-21T07:09:31.879Z,28.37
2018-01-21T07:12:00.430Z,11.50
2018-01-21T07:14:29.034Z,14.80
2018-01-21T07:16:57.721Z,17.10
2018-01-21T07:19:26.265Z,15.23
2018-01-21T07:21:54.795Z,12.77
2018-01-21T07:24:23.487Z,14.53
2018-01-21T07:26:52.085Z,15.17
2018-01-21T07:29:20.788Z,12.50
2018-01-21T07:31:50.116Z,10.43
2018-01-21T07:34:18.681Z,15.30
2018-01-21T07:36:47.239Z,31.60
2018-01-21T07:39:15.817Z,29.53
2018-01-21T07:41:44.350Z,58.73
2018-01-21T07:44:13.651Z,13.27
2018-01-21T07:46:42.190Z,31.30
2018-01-21T07:49:10.725Z,18.77
2018-01-21T07:51:39.264Z,13.90
2018-01-21T07:54:08.625Z,20.20
2018-01-21T07:56:37.162Z,10.80
2018-01-21T07:59:05.709Z,10.03
2018-01-21T08:01:34.284Z,9.30
2018-01-21T08:04:02.844Z,9.73
2018-01-21T08:06:31.422Z,10.83
2018-01-21T08:09:00.073Z,10.63
2018-01-21T08:11:28.644Z,10.70
2018-01-21T08:13:57.623Z,9.30
2018-01-21T08:16:26.149Z,11.03
2018-01-21T08:18:54.710Z,10.67
2018-01-21T08:21:24.026Z,12.20
2018-01-21T08:23:52.544Z,12.63
2018-01-21T08:26:21.062Z,13.27
2018-01-21T08:28:49.605Z,11.40
2018-01-21T08:31:18.109Z,12.60
2018-01-21T08:33:52.155Z,9.30
2018-01-21T08:36:26.142Z,9.67
2018-01-21T08:39:00.086Z,9.57
2018-01-21T08:41:30.290Z,8.40
2018-01-21T08:43:59.594Z,8.37
2018-01-21T08:46:28.211Z,10.23
2018-01-21T08:48:56.909Z,10.83
2018-01-21T08:51:25.328Z,10.60
2018-01-21T08:53:54.629Z,12.63
2018-01-21T08:56:23.242Z,7.87
2018-01-21T08:58:51.766Z,7.43
2018-01-21T09:01:20.372Z,6.83
2018-01-21T09:03:48.916Z,8.03
2018-01-21T09:06:17.468Z,7.43
2018-01-21T09:08:46.870Z,7.17
2018-01-21T09:11:15.374Z,6.20
2018-01-21T09:13:45.117Z,7.10
2018-01-21T09:16:13.691Z,5.63
2018-01-21T09:18:42.997Z,5.97
2018-01-21T09:21:11.546Z,5.60
2018-01-21T09:23:40.139Z,9.30
2018-01-21T09:26:09.434Z,7.83
2018-01-21T09:28:37.982Z,6.73
2018-01-21T09:31:06.550Z,6.63
2018-01-21T09:33:35.108Z,5.37
2018-01-21T09:36:03.705Z,6.53
2018-01-21T09:38:33.042Z,5.03
2018-01-21T09:41:01.548Z,4.97
2018-01-21T09:43:30.074Z,9.33
2018-01-21T09:45:58.626Z,9.23
2018-01-21T09:48:27.374Z,6.23
2018-01-21T09:50:56.678Z,5.97
2018-01-21T09:53:25.258Z,8.50
2018-01-21T09:55:54.557Z,5.47
2018-01-21T09:58:23.270Z,5.77
2018-01-21T10:00:51.826Z,4.90
2018-01-21T10:03:21.086Z,6.90
2018-01-21T10:05:49.729Z,5.63
2018-01-21T10:08:18.267Z,4.97
2018-01-21T10:10:46.789Z,5.00
2018-01-21T10:13:15.485Z,4.77
2018-01-21T10:15:44.052Z,7.73
2018-01-21T10:18:12.660Z,6.10
2018-01-21T10:20:41.235Z,5.70
2018-01-21T10:23:09.810Z,6.30
2018-01-21T10:25:38.344Z,5.87
2018-01-21T10:28:06.901Z,9.17
2018-01-21T10:30:35.414Z,7.27
2018-01-21T10:33:03.899Z,6.67
2018-01-21T10:35:32.478Z,7.37
2018-01-21T10:38:00.830Z,6.83
2018-01-21T10:40:29.463Z,6.47
2018-01-21T10:42:58.012Z,6.87
2018-01-21T10:45:26.745Z,6.80
2018-01-21T10:47:56.532Z,7.80
2018-01-21T10:50:25.206Z,8.53
2018-01-21T10:52:54.592Z,6.97
2018-01-21T10:55:23.125Z,7.17
2018-01-21T10:57:51.683Z,7.70
2018-01-21T11:00:20.360Z,7.17
2018-01-21T11:02:48.938Z,6.67
2018-01-21T11:05:17.461Z,7.43
2018-01-21T11:07:46.794Z,9.60
2018-01-21T11:10:15.318Z,9.30
2018-01-21T11:12:43.886Z,11.57
2018-01-21T11:15:12.598Z,7.27
2018-01-21T11:17:43.163Z,7.60
2018-01-21T11:20:11.735Z,7.53
2018-01-21T11:22:40.238Z,7.23
2018-01-21T11:25:08.820Z,7.50
2018-01-21T11:27:37.373Z,9.80
2018-01-21T11:30:05.933Z,7.43
2018-01-21T11:32:34.509Z,10.47
2018-01-21T11:35:03.141Z,7.57
2018-01-21T11:37:31.627Z,7.30
2018-01-21T11:40:05.893Z,9.57
2018-01-21T11:42:35.389Z,9.73
2018-01-21T11:45:04.962Z,8.03
2018-01-21T11:47:38.609Z,9.57
2018-01-21T11:50:07.148Z,9.33
2018-01-21T11:52:35.694Z,9.57
2018-01-21T11:55:04.963Z,9.43
2018-01-21T11:57:34.650Z,7.50
2018-01-21T12:00:03.271Z,13.97
2018-01-21T12:02:32.808Z,9.77
2018-01-21T12:05:01.379Z,10.03
2018-01-21T12:07:30.769Z,7.77
2018-01-21T12:09:59.170Z,10.00
2018-01-21T12:12:27.704Z,9.27
2018-01-21T12:14:56.259Z,8.70
2018-01-21T12:17:25.167Z,9.40
2018-01-21T12:19:53.706Z,9.30
2018-01-21T12:22:22.972Z,9.97
2018-01-21T12:24:51.519Z,12.10
2018-01-21T12:27:20.060Z,15.20
2018-01-21T12:29:49.342Z,6.67
2018-01-21T12:32:36.096Z,15.93
2018-01-21T12:35:04.655Z,10.03
2018-01-21T12:37:33.213Z,18.27
2018-01-21T12:40:01.605Z,10.37
2018-01-21T12:42:33.192Z,7.77
2018-01-21T12:45:01.756Z,9.50
2018-01-21T12:47:30.303Z,8.33
2018-01-21T12:49:58.883Z,7.50
2018-01-21T12:52:27.426Z,8.73
2018-01-21T12:54:55.847Z,6.60
2018-01-21T12:57:24.358Z,6.27
2018-01-21T12:59:53.691Z,6.60
2018-01-21T13:02:22.251Z,9.10
2018-01-21T13:04:50.772Z,5.87
2018-01-21T13:07:19.307Z,6.00
2018-01-21T13:09:48.660Z,5.70
2018-01-21T13:12:17.216Z,6.07
2018-01-21T13:14:45.771Z,9.60
2018-01-21T13:17:15.091Z,6.20
2018-01-21T13:19:43.634Z,6.30
2018-01-21T13:22:12.153Z,6.93
2018-01-21T13:24:41.491Z,7.20
2018-01-21T13:27:09.983Z,6.27
2018-01-21T13:29:38.530Z,5.00
2018-01-21T13:32:07.071Z,6.23
2018-01-21T13:34:35.612Z,5.20
2018-01-21T13:37:04.176Z,6.07
2018-01-21T13:39:32.737Z,7.10
2018-01-21T13:42:01.270Z,5.30
2018-01-21T13:44:29.853Z,6.30
2018-01-21T13:46:58.402Z,5.53
2018-01-21T13:49:27.735Z,9.93
2018-01-21T13:51:57.319Z,5.30
2018-01-21T13:54:26.902Z,5.30
2018-01-21T13:56:56.466Z,6.10
2018-01-21T13:59:25.019Z,5.73
2018-01-21T14:01:53.512Z,5.20
2018-01-21T14:04:22.027Z,4.77
2018-01-21T14:06:50.600Z,7.00
2018-01-21T14:09:19.109Z,5.80
2018-01-21T14:11:48.511Z,10.93
2018-01-21T14:14:17.819Z,6.03
2018-01-21T14:16:47.254Z,7.17
2018-01-21T14:19:15.797Z,6.40
2018-01-21T14:21:45.155Z,6.47
2018-01-21T14:24:14.993Z,5.20
2018-01-21T14:26:43.553Z,7.90
2018-01-21T14:29:12.076Z,7.07
2018-01-21T14:31:41.401Z,6.73
2018-01-21T14:34:09.946Z,8.13
2018-01-21T14:36:38.436Z,9.40
2018-01-21T14:39:07.749Z,8.17
2018-01-21T14:41:37.038Z,8.30
2018-01-21T14:44:05.566Z,10.50
2018-01-21T14:46:34.135Z,7.50
2018-01-21T14:49:02.644Z,8.53
2018-01-21T14:51:31.164Z,7.87
2018-01-21T14:53:59.721Z,7.53
2018-01-21T14:56:28.253Z,7.33
2018-01-21T14:58:56.735Z,7.30
2018-01-21T15:01:26.106Z,7.87
2018-01-21T15:03:54.647Z,10.13
2018-01-21T15:06:23.192Z,8.13
2018-01-21T15:08:52.468Z,12.03
2018-01-21T15:11:21.010Z,15.47
2018-01-21T15:13:50.257Z,9.80
2018-01-21T15:16:18.806Z,10.33
2018-01-21T15:18:47.382Z,9.20
2018-01-21T15:21:17.988Z,42.90
2018-01-21T15:23:46.526Z,14.03
2018-01-21T15:26:15.063Z,17.10
2018-01-21T15:28:43.638Z,14.10
2018-01-21T15:31:12.193Z,14.87
2018-01-21T15:33:41.472Z,11.27
2018-01-21T15:36:10.016Z,9.37
2018-01-21T15:38:39.029Z,9.10
2018-01-21T15:41:07.549Z,5.93
2018-01-21T15:43:36.840Z,6.60
2018-01-21T15:46:06.152Z,6.87
2018-01-21T15:48:35.505Z,6.43
2018-01-21T15:51:04.038Z,5.57
2018-01-21T15:53:33.541Z,5.73
2018-01-21T15:56:02.840Z,5.00
2018-01-21T15:58:32.178Z,5.00
2018-01-21T16:01:00.696Z,5.33
2018-01-21T16:03:29.258Z,5.70
2018-01-21T16:05:57.829Z,5.40
2018-01-21T16:08:26.475Z,5.47
2018-01-21T16:10:55.749Z,6.07
2018-01-21T16:13:24.293Z,6.20
2018-01-21T16:15:52.909Z,6.43
2018-01-21T16:18:21.527Z,5.80
2018-01-21T16:20:50.078Z,5.60
2018-01-21T16:23:19.612Z,5.70
2018-01-21T16:25:48.895Z,6.00
2018-01-21T16:28:17.445Z,7.40
2018-01-21T16:30:46.206Z,8.13
2018-01-21T16:33:14.710Z,8.33
2018-01-21T16:35:43.243Z,8.00
2018-01-21T16:38:23.659Z,8.77
2018-01-21T16:40:56.763Z,11.77
2018-01-21T16:43:27.312Z,11.07
2018-01-21T16:45:56.627Z,8.77
2018-01-21T16:48:25.947Z,7.23
2018-01-21T16:50:54.471Z,11.93
2018-01-21T16:53:28.722Z,13.23
2018-01-21T16:55:57.284Z,9.83
2018-01-21T16:58:25.804Z,7.97
2018-01-21T17:00:54.342Z,6.50
2018-01-21T17:03:22.871Z,6.70
2018-01-21T17:05:51.411Z,8.93
2018-01-21T17:08:19.986Z,7.80
2018-01-21T17:10:48.549Z,8.93
2018-01-21T17:13:22.684Z,10.87
2018-01-21T17:15:52.385Z,8.37
2018-01-21T17:18:20.885Z,8.17
2018-01-21T17:20:49.431Z,9.87
2018-01-21T17:23:19.717Z,11.60
2018-01-21T17:25:49.051Z,10.10
2018-01-21T17:28:17.583Z,10.23
2018-01-21T17:30:46.934Z,9.27
2018-01-21T17:33:15.565Z,9.30
2018-01-21T17:35:44.115Z,7.70
2018-01-21T17:38:12.657Z,8.00
2018-01-21T17:40:41.414Z,7.77
2018-01-21T17:43:09.969Z,8.70
2018-01-21T17:45:38.507Z,8.63
2018-01-21T17:48:07.062Z,13.10
2018-01-21T17:50:36.362Z,9.60
2018-01-21T17:53:04.858Z,9.73
2018-01-21T17:55:34.147Z,10.37
2018-01-21T17:58:02.694Z,11.97
2018-01-21T18:00:31.093Z,11.20
2018-01-21T18:02:59.680Z,11.53
2018-01-21T18:05:28.233Z,10.30
2018-01-21T18:07:56.802Z,10.50
2018-01-21T18:10:25.372Z,11.20
2018-01-21T18:12:53.930Z,12.97
2018-01-21T18:15:23.260Z,16.80
2018-01-21T18:17:51.826Z,17.03
2018-01-21T18:20:20.546Z,21.73
2018-01-21T18:22:49.083Z,22.47
2018-01-21T18:25:18.382Z,15.83
2018-01-21T18:27:47.711Z,13.43
2018-01-21T18:30:16.225Z,12.90
2018-01-21T18:32:44.925Z,11.83
2018-01-21T18:35:13.465Z,12.00
2018-01-21T18:37:41.979Z,13.13
2018-01-21T18:40:10.531Z,12.07
2018-01-21T18:42:39.078Z,12.57
2018-01-21T18:45:08.381Z,12.17
2018-01-21T18:47:37.722Z,13.63
2018-01-21T18:50:06.294Z,19.33
2018-01-21T18:52:34.822Z,23.60
2018-01-21T18:55:03.380Z,22.53
2018-01-21T18:57:31.930Z,25.53
2018-01-21T19:00:00.481Z,23.60
2018-01-21T19:02:29.067Z,15.97
2018-01-21T19:04:58.381Z,18.60
2018-01-21T19:07:26.927Z,17.00
2018-01-21T19:09:55.471Z,16.93
2018-01-21T19:12:24.025Z,17.10
2018-01-21T19:14:52.566Z,17.00
2018-01-21T19:17:21.113Z,17.33
2018-01-21T19:19:55.799Z,11.20
2018-01-21T19:22:24.512Z,12.93
2018-01-21T19:24:53.121Z,12.40
2018-01-21T19:27:21.630Z,13.43
2018-01-21T19:29:50.192Z,14.93
2018-01-21T19:32:18.752Z,13.83
2018-01-21T19:34:47.283Z,16.43
2018-01-21T19:37:15.831Z,15.17
2018-01-21T19:43:04.177Z,18.00
2018-01-21T19:45:33.261Z,18.10
2018-01-21T19:48:01.721Z,17.97
2018-01-21T19:50:30.204Z,20.33
2018-01-21T19:52:58.699Z,16.60
2018-01-21T19:55:27.158Z,16.23
2018-01-21T19:57:55.719Z,17.77
2018-01-21T20:00:24.205Z,15.67
2018-01-21T20:02:52.667Z,14.97
2018-01-21T20:05:21.165Z,14.47
2018-01-21T20:07:49.506Z,22.60
2018-01-21T20:10:18.781Z,15.57
2018-01-21T20:12:48.553Z,13.13
2018-01-21T20:15:17.109Z,11.83
2018-01-21T20:17:47.890Z,10.53
2018-01-21T20:20:16.447Z,12.40
2018-01-21T20:22:45.019Z,11.70
2018-01-21T20:25:13.561Z,11.80
2018-01-21T20:27:42.881Z,15.10
2018-01-21T20:30:11.375Z,22.33
2018-01-21T20:32:39.949Z,24.70
2018-01-21T20:35:09.263Z,27.83
2018-01-21T20:37:37.826Z,20.87
2018-01-21T20:40:07.184Z,15.53
2018-01-21T20:42:35.973Z,13.43
2018-01-21T20:45:04.157Z,12.50
2018-01-21T20:47:32.682Z,11.97
2018-01-21T20:50:01.240Z,12.50
2018-01-21T20:52:36.062Z,12.73
2018-01-21T20:55:04.289Z,12.60
2018-01-21T20:57:32.879Z,11.60
2018-01-21T21:00:01.117Z,10.40
2018-01-21T21:02:29.707Z,9.50
2018-01-21T21:04:58.242Z,10.30
2018-01-21T21:07:26.845Z,14.10
2018-01-21T21:09:55.412Z,15.30
2018-01-21T21:12:24.052Z,13.97
2018-01-21T21:14:52.602Z,11.40
2018-01-21T21:17:21.946Z,22.30
2018-01-21T21:19:50.511Z,15.63
2018-01-21T21:22:19.075Z,14.10
2018-01-21T21:24:47.613Z,20.03
2018-01-21T21:27:16.221Z,15.40
2018-01-21T21:29:44.848Z,13.20
2018-01-21T21:32:13.236Z,11.47
2018-01-21T21:34:41.799Z,10.40
2018-01-21T21:37:10.366Z,9.90
2018-01-21T21:39:39.652Z,13.00
2018-01-21T21:42:08.173Z,12.13
2018-01-21T21:44:36.743Z,11.60
2018-01-21T21:47:05.144Z,10.93
2018-01-21T21:49:33.681Z,10.57
2018-01-21T21:52:06.534Z,10.00
2018-01-21T21:54:37.162Z,11.10
2018-01-21T21:57:05.714Z,12.50
2018-01-21T21:59:34.274Z,10.77
2018-01-21T22:02:03.607Z,11.43
2018-01-21T22:04:33.198Z,12.13
2018-01-21T22:07:01.805Z,13.03
2018-01-21T22:09:30.522Z,15.17
2018-01-21T22:11:59.858Z,14.07
2018-01-21T22:14:31.701Z,14.63
2018-01-21T22:17:00.311Z,11.13
2018-01-21T22:19:28.916Z,13.17
2018-01-21T22:21:57.424Z,15.87
2018-01-21T22:24:25.979Z,24.30
2018-01-21T22:26:54.554Z,25.77
2018-01-21T22:29:23.119Z,21.50
2018-01-21T22:31:51.667Z,64.87
2018-01-21T22:34:20.230Z,40.03
2018-01-21T22:36:48.717Z,33.00
2018-01-21T22:39:17.327Z,23.63
2018-01-21T22:41:45.882Z,38.33
2018-01-21T22:44:14.404Z,33.47
2018-01-21T22:46:43.028Z,19.13
2018-01-21T22:49:11.577Z,17.43
2018-01-21T22:51:40.852Z,15.80
2018-01-21T22:54:09.423Z,22.70
2018-01-21T22:56:37.998Z,22.70
2018-01-21T22:59:06.582Z,19.10
2018-01-21T23:01:34.825Z,20.07
2018-01-21T23:04:03.422Z,18.27
2018-01-21T23:06:31.977Z,20.57
2018-01-21T23:09:00.533Z,18.40
2018-01-21T23:11:29.103Z,19.17
2018-01-21T23:13:57.648Z,15.43
2018-01-21T23:16:26.231Z,16.33
2018-01-21T23:18:54.759Z,12.53
2018-01-21T23:21:23.258Z,13.07
2018-01-21T23:23:52.557Z,12.50
2018-01-21T23:26:21.861Z,10.43
2018-01-21T23:28:51.194Z,11.40
2018-01-21T23:31:19.730Z,10.77
2018-01-21T23:33:48.267Z,11.23
2018-01-21T23:36:16.810Z,10.97
2018-01-21T23:38:45.358Z,11.80
2018-01-21T23:41:13.889Z,12.40
2018-01-21T23:43:42.367Z,11.07
2018-01-21T23:46:10.891Z,12.03
2018-01-21T23:48:39.398Z,11.13
2018-01-21T23:51:07.932Z,10.30
2018-01-21T23:53:36.480Z,10.83
2018-01-21T23:56:05.030Z,10.93
2018-01-21T23:58:33.511Z,9.40
